• Join FlightAware (Why Join?)
  • Login
  • US Flag 
10:52PM EST


 

Airport Tracker/Info


-or-


 

Live Flight TrackerFlight Track Log ✈ TPA841 ✈ 01-Sep-2013 ✈ KMIA - SBEG / MAO

Flight Track Log - Related Links

Times and Time Zones

All times are in EDT time to prevent confusion due to time zone crossing. See the TPA841 flight status page for this flight to view local times or setup timezone preferences in your user account.

Time Position Orientation Groundspeed Altitude Reporting Facility
EDT Latitude Longitude Course Direction KTS MPH feet Rate Location/Type
10:55AM 25.7870 -80.2900 87° East 165 190  Level FlightAware
10:55AM 25.7880 -80.2700 87° East 180 207 600 1,500 Climbing FlightAware
10:56AM 25.7840 -80.2510 103° East 184 212 1,100 1,080 Climbing FlightAware
10:56AM 25.7790 -80.2380 113° Southeast 201 231 1,300 720 Climbing FlightAware
10:56AM 25.7700 -80.2150 113° Southeast 226 260 1,600 1,320 Climbing FlightAware
10:57AM 25.7540 -80.1760 114° Southeast 258 297 2,500 1,920 Climbing FlightAware
10:57AM 25.7420 -80.1460 114° Southeast 262 302 3,500 1,920 Climbing FlightAware
10:58AM 25.7330 -80.1280 119° Southeast 266 306 4,000 2,220 Climbing FlightAware
10:58AM 25.7080 -80.1150 155° Southeast 273 314 4,900 2,880 Climbing FlightAware
10:58AM 25.6700 -80.1100 173° South 278 320 6,200 2,820 Climbing FlightAware
10:59AM 25.6410 -80.1060 173° South 275 316 7,200 2,400 Climbing FlightAware
10:59AM 25.6140 -80.1010 171° South 279 321 8,000 2,460 Climbing FlightAware
10:59AM 25.5920 -80.0930 162° South 282 325 8,800 2,400 Climbing FlightAware
11:00AM 25.5620 -80.0820 162° South 283 326 9,700 1,740 Climbing FlightAware
11:00AM 25.5280 -80.0700 162° South 296 341 10,400 1,080 Climbing FlightAware
11:01AM 25.4780 -80.0520 162° South 323 372 10,900 840 Climbing FlightAware
11:01AM 25.4330 -80.0360 162° South 358 412 11,400 960 Climbing FlightAware
11:02AM 25.3540 -80.0070 162° South 358 412 12,200 600 Climbing FlightAware
11:03AM 25.3090 -79.9890 160° South 358 412 12,200 2,700 Level FlightAware
11:03AM 25.2750 -79.9720 156° South 379 436 14,300 3,900 Climbing FlightAware
11:04AM 25.2310 -79.9400 147° Southeast 388 447 15,100 1,680 Climbing FlightAware
11:04AM 25.1600 -79.8890 147° Southeast 401 461 16,500 1,980 Climbing FlightAware
11:05AM 25.1130 -79.8550 147° Southeast 402 463 17,500 900 Climbing FlightAware
11:05AM 25.0630 -79.8180 146° Southeast 402 463 17,500  Level FlightAware
11:06AM 25.0170 -79.7840 146° Southeast 402 463 17,500  Level FlightAware
11:07AM 24.9680 -79.7470 146° Southeast 402 463 17,500  Level FlightAware
11:07AM 24.9160 -79.7090 146° Southeast 402 463 17,500  Level FlightAware
11:08AM 24.8650 -79.6710 146° Southeast 402 463 17,500 4,560 Level FlightAware
11:08AM 24.7680 -79.6100 150° Southeast 425 489 22,700 5,400 Climbing FlightAware
11:09AM 24.7070 -79.5670 147° Southeast 439 505 23,300 1,020 Climbing FlightAware
11:10AM 24.6450 -79.5230 147° Southeast 444 511 23,900 1,200 Climbing FlightAware
11:10AM 24.5790 -79.4760 147° Southeast 444 511 24,800 1,140 Climbing FlightAware
11:11AM 24.5360 -79.4460 148° Southeast 443 510 25,100 180 Climbing FlightAware
11:11AM 24.4540 -79.3850 146° Southeast 443 510 25,100  Level FlightAware
11:12AM 24.3950 -79.3410 146° Southeast 443 510 25,100  Level FlightAware
11:13AM 24.3430 -79.3030 146° Southeast 443 510 25,100  Level FlightAware
11:13AM 24.2890 -79.2630 146° Southeast 443 510 25,100  Level FlightAware
11:14AM 24.2370 -79.2250 146° Southeast 443 510 25,100 2,700 Level FlightAware
11:15AM 24.0736 -79.1211 146° Southeast 473 544 28,800 120 Climbing Miami Center
11:17AM 23.8908 -78.9849 142° Southeast  Level FlightAware Approximate
11:24AM 23.1884 -78.4028 143° Southeast  Level FlightAware Approximate
11:25AM 23.0876 -78.3206 143° Southeast  Level FlightAware Approximate
11:26AM 22.9867 -78.2385 143° Southeast  Level FlightAware Approximate
11:27AM 22.8858 -78.1565 143° Southeast  Level FlightAware Approximate
11:28AM 22.7848 -78.0747 143° Southeast  Level FlightAware Approximate
11:29AM 22.6838 -77.9930 143° Southeast  Level FlightAware Approximate
11:30AM 22.5828 -77.9114 143° Southeast  Level FlightAware Approximate
11:31AM 22.4817 -77.8299 143° Southeast  Level FlightAware Approximate
11:32AM 22.3805 -77.7486 143° Southeast  Level FlightAware Approximate
11:33AM 22.2794 -77.6673 143° Southeast  Level FlightAware Approximate
11:34AM 22.1781 -77.5862 143° Southeast  Level FlightAware Approximate
11:35AM 22.0769 -77.5052 143° Southeast  Level FlightAware Approximate
11:36AM 21.9756 -77.4243 143° Southeast  Level FlightAware Approximate
11:37AM 21.8743 -77.3436 144° Southeast  Level FlightAware Approximate
11:38AM 21.7729 -77.2629 144° Southeast  Level FlightAware Approximate
11:39AM 21.6715 -77.1824 144° Southeast  Level FlightAware Approximate
11:40AM 21.5700 -77.1019 144° Southeast  Level FlightAware Approximate
11:41AM 21.4684 -77.0217 144° Southeast  Level FlightAware Approximate
11:42AM 21.3664 -76.9423 144° Southeast  Level FlightAware Approximate
11:43AM 21.2643 -76.8629 144° Southeast  Level FlightAware Approximate
11:44AM 21.1622 -76.7837 144° Southeast  Level FlightAware Approximate
11:45AM 21.0601 -76.7045 144° Southeast  Level FlightAware Approximate
11:46AM 20.9579 -76.6255 144° Southeast  Level FlightAware Approximate
11:47AM 20.8557 -76.5466 144° Southeast  Level FlightAware Approximate
11:48AM 20.7534 -76.4678 144° Southeast  Level FlightAware Approximate
11:49AM 20.6511 -76.3890 144° Southeast  Level FlightAware Approximate
11:50AM 20.5488 -76.3104 144° Southeast  Level FlightAware Approximate
11:51AM 20.4465 -76.2319 144° Southeast  Level FlightAware Approximate
11:52AM 20.3441 -76.1536 144° Southeast  Level FlightAware Approximate
11:53AM 20.2416 -76.0753 144° Southeast  Level FlightAware Approximate
11:54AM 20.1392 -75.9971 144° Southeast  Level FlightAware Approximate
11:55AM 20.0367 -75.9190 144° Southeast  Level FlightAware Approximate
11:56AM 19.9342 -75.8410 144° Southeast  Level FlightAware Approximate
11:57AM 19.8316 -75.7632 144° Southeast  Level FlightAware Approximate
11:58AM 19.7290 -75.6854 144° Southeast  Level FlightAware Approximate
11:59AM 19.6264 -75.6077 145° Southeast  Level FlightAware Approximate
12:00PM 19.5237 -75.5301 145° Southeast  Level FlightAware Approximate
12:01PM 19.4210 -75.4526 145° Southeast  Level FlightAware Approximate
12:02PM 19.3183 -75.3753 145° Southeast  Level FlightAware Approximate
12:03PM 19.2155 -75.2980 145° Southeast  Level FlightAware Approximate
12:04PM 19.1127 -75.2208 145° Southeast  Level FlightAware Approximate
12:05PM 19.0099 -75.1437 145° Southeast  Level FlightAware Approximate
12:06PM 18.9070 -75.0667 145° Southeast  Level FlightAware Approximate
12:07PM 18.8041 -74.9898 145° Southeast  Level FlightAware Approximate
12:08PM 18.7012 -74.9130 145° Southeast  Level FlightAware Approximate
12:09PM 18.5983 -74.8362 144° Southeast  Level FlightAware Approximate
12:10PM 18.4957 -74.7590 144° Southeast  Level FlightAware Approximate
12:11PM 18.3931 -74.6819 145° Southeast  Level FlightAware Approximate
12:12PM 18.2904 -74.6049 145° Southeast  Level FlightAware Approximate
12:13PM 18.1877 -74.5280 145° Southeast  Level FlightAware Approximate
12:14PM 18.0850 -74.4512 145° Southeast  Level FlightAware Approximate
12:15PM 17.9821 -74.3746 145° Southeast  Level FlightAware Approximate
12:16PM 17.8793 -74.2980 145° Southeast  Level FlightAware Approximate
12:17PM 17.7764 -74.2215 145° Southeast  Level FlightAware Approximate
12:18PM 17.6735 -74.1451 145° Southeast  Level FlightAware Approximate
12:19PM 17.5706 -74.0688 145° Southeast  Level FlightAware Approximate
12:20PM 17.4676 -73.9926 145° Southeast  Level FlightAware Approximate
12:21PM 17.3647 -73.9165 145° Southeast  Level FlightAware Approximate
12:22PM 17.2617 -73.8404 145° Southeast  Level FlightAware Approximate
12:23PM 17.1586 -73.7645 145° Southeast  Level FlightAware Approximate
12:24PM 17.0555 -73.6886 145° Southeast  Level FlightAware Approximate
12:25PM 16.9524 -73.6128 145° Southeast  Level FlightAware Approximate
12:26PM 16.8493 -73.5371 145° Southeast  Level FlightAware Approximate
12:27PM 16.7461 -73.4614 145° Southeast  Level FlightAware Approximate
12:28PM 16.6430 -73.3859 145° Southeast  Level FlightAware Approximate
12:29PM 16.5400 -73.3101 145° Southeast  Level FlightAware Approximate
12:30PM 16.4370 -73.2343 145° Southeast  Level FlightAware Approximate
12:31PM 16.3341 -73.1585 145° Southeast  Level FlightAware Approximate
12:32PM 16.2311 -73.0829 145° Southeast  Level FlightAware Approximate
12:33PM 16.1281 -73.0073 145° Southeast  Level FlightAware Approximate
12:34PM 16.0250 -72.9318 145° Southeast  Level FlightAware Approximate
12:35PM 15.9220 -72.8563 145° Southeast  Level FlightAware Approximate
12:36PM 15.8189 -72.7810 145° Southeast  Level FlightAware Approximate
12:37PM 15.7157 -72.7057 145° Southeast  Level FlightAware Approximate
12:38PM 15.6126 -72.6305 145° Southeast  Level FlightAware Approximate
12:39PM 15.5094 -72.5553 145° Southeast  Level FlightAware Approximate
12:40PM 15.4061 -72.4804 145° Southeast  Level FlightAware Approximate
12:41PM 15.3027 -72.4058 145° Southeast  Level FlightAware Approximate
12:42PM 15.1991 -72.3313 145° Southeast  Level FlightAware Approximate
12:43PM 15.0956 -72.2569 145° Southeast  Level FlightAware Approximate
12:44PM 14.9920 -72.1825 145° Southeast  Level FlightAware Approximate
12:45PM 14.8884 -72.1082 145° Southeast  Level FlightAware Approximate
12:45PM 13.9740 -72.0060 145° Southeast 480 552 37,000  Level FlightAware
12:45PM 13.9180 -71.9680 147° Southeast 481 554 37,000  Level FlightAware
12:46PM 14.7848 -72.0340 145° Southeast  Level FlightAware Approximate
12:46PM 13.8400 -71.9150 147° Southeast 480 552 37,000  Level FlightAware
12:46PM 13.7770 -71.8720 146° Southeast 486 559 37,000  Level FlightAware
12:47PM 13.7080 -71.8250 147° Southeast 486 559 37,000  Level FlightAware
12:48PM 13.6450 -71.7810 146° Southeast 486 559 37,000  Level FlightAware
12:48PM 13.5880 -71.7410 146° Southeast 486 559 37,000  Level FlightAware
12:49PM 13.5310 -71.7020 146° Southeast 486 559 37,000  Level FlightAware
12:50PM 13.4000 -71.6190 148° Southeast 484 557 37,000  Level FlightAware
12:50PM 13.3260 -71.5690 147° Southeast 483 556 37,000  Level FlightAware
12:51PM 13.2660 -71.5280 146° Southeast 483 556 37,000  Level FlightAware
12:52PM 13.2030 -71.4840 146° Southeast 483 556 37,000  Level FlightAware
12:52PM 13.1360 -71.4370 146° Southeast 483 556 37,000  Level FlightAware
12:53PM 13.0820 -71.4000 146° Southeast 483 556 37,000  Level FlightAware
12:54PM 13.0220 -71.3590 146° Southeast 483 556 37,000  Level FlightAware
12:54PM 12.9720 -71.3240 146° Southeast 483 556 37,000  Level FlightAware
12:55PM 12.8360 -71.2410 149° Southeast 480 552 37,000  Level FlightAware
12:55PM 12.7670 -71.1940 146° Southeast 481 554 37,000  Level FlightAware
12:56PM 12.7210 -71.1620 146° Southeast 481 554 37,000  Level FlightAware
12:57PM 12.6630 -71.1220 146° Southeast 481 554 37,000  Level FlightAware
12:57PM 12.5810 -71.0700 148° Southeast 484 557 37,000  Level FlightAware
12:58PM 12.5240 -71.0310 146° Southeast 484 557 37,000  Level FlightAware
12:58PM 12.4500 -70.9800 146° Southeast 484 557 37,000  Level FlightAware
12:59PM 12.4150 -70.9560 146° Southeast 484 557 37,000  Level FlightAware
12:59PM 12.3570 -70.9150 145° Southeast 484 557 37,000  Level FlightAware
01:00PM 12.2950 -70.8730 146° Southeast 484 557 37,000  Level FlightAware
01:01PM 12.2400 -70.8350 146° Southeast 484 557 37,000  Level FlightAware
01:01PM 12.1300 -70.7590 146° Southeast 486 559 37,000  Level FlightAware
01:02PM 12.0700 -70.7160 145° Southeast 486 559 37,000  Level FlightAware
01:02PM 12.0150 -70.6770 145° Southeast 486 559 37,000  Level FlightAware
01:03PM 11.9610 -70.6380 145° Southeast 486 559 37,000  Level FlightAware
01:04PM 11.8980 -70.5930 145° Southeast 486 559 37,000  Level FlightAware
01:04PM 11.8400 -70.5510 145° Southeast 486 559 37,000  Level FlightAware
01:05PM 11.7840 -70.5110 145° Southeast 486 559 37,000  Level FlightAware
01:06PM 11.7260 -70.4700 145° Southeast 486 559 37,000  Level FlightAware
01:06PM 11.5800 -70.3770 148° Southeast 485 558 37,000  Level FlightAware
01:07PM 11.5160 -70.3320 145° Southeast 485 558 37,000  Level FlightAware
01:07PM 11.4430 -70.2830 147° Southeast 485 558 37,000  Level FlightAware
01:08PM 11.3760 -70.2370 146° Southeast 485 558 37,000  Level FlightAware
01:08PM 11.3040 -70.1870 146° Southeast 486 559 37,000  Level FlightAware
01:09PM 11.2460 -70.1470 146° Southeast 487 560 37,000  Level FlightAware
01:10PM 11.1920 -70.1100 146° Southeast 487 560 37,000  Level FlightAware
01:10PM 11.1250 -70.0640 146° Southeast 487 560 37,000  Level FlightAware
01:10PM 11.0790 -70.0320 146° Southeast 487 560 37,000  Level FlightAware
01:11PM 11.0190 -69.9900 146° Southeast 487 560 37,000  Level FlightAware
01:12PM 10.9640 -69.9510 145° Southeast 487 560 37,000  Level FlightAware
01:13PM 10.9060 -69.9090 145° Southeast 487 560 37,000  Level FlightAware
01:13PM 10.8510 -69.8700 145° Southeast 487 560 37,000  Level FlightAware
01:14PM 10.7740 -69.8150 145° Southeast 487 560 37,000  Level FlightAware
01:15PM 10.6110 -69.7110 148° Southeast 486 559 37,000  Level FlightAware
01:15PM 10.5470 -69.6670 146° Southeast 488 562 37,000  Level FlightAware
01:16PM 10.4900 -69.6280 146° Southeast 488 562 37,000  Level FlightAware
01:17PM 10.4190 -69.5790 146° Southeast 487 560 37,000  Level FlightAware
01:17PM 10.3490 -69.5320 147° Southeast 486 559 37,000  Level FlightAware
01:18PM 10.2880 -69.4900 146° Southeast 485 558 37,000  Level FlightAware
01:18PM 10.2080 -69.4350 146° Southeast 484 557 37,000  Level FlightAware
01:19PM 10.1480 -69.3920 145° Southeast 484 557 37,000  Level FlightAware
01:20PM 10.0920 -69.3520 145° Southeast 484 557 37,000  Level FlightAware
01:20PM 10.0350 -69.3120 145° Southeast 484 557 37,000  Level FlightAware
01:21PM 9.9750 -69.2690 145° Southeast 484 557 37,000  Level FlightAware
01:21PM 9.9060 -69.2200 145° Southeast 484 557 37,000  Level FlightAware
01:22PM 9.8550 -69.1840 145° Southeast 484 557 37,000  Level FlightAware
01:23PM 9.7970 -69.1430 145° Southeast 484 557 37,000  Level FlightAware
01:23PM 9.7420 -69.1040 145° Southeast 484 557 37,000  Level FlightAware
01:24PM 9.6880 -69.0650 145° Southeast 484 557 37,000  Level FlightAware
01:24PM 9.6320 -69.0250 145° Southeast 484 557 37,000  Level FlightAware
01:25PM 9.5740 -68.9840 145° Southeast 484 557 37,000  Level FlightAware
01:26PM 9.5270 -68.9510 145° Southeast 484 557 37,000  Level FlightAware
01:26PM 9.4740 -68.9140 145° Southeast 484 557 37,000  Level FlightAware
01:27PM 9.4180 -68.8740 145° Southeast 484 557 37,000  Level FlightAware
01:27PM 9.3770 -68.8450 145° Southeast 484 557 37,000  Level FlightAware
01:28PM 9.2960 -68.7870 145° Southeast 484 557 37,000 -300 Level FlightAware
01:31PM 9.0398 -68.6012 144° Southeast  Level Estimated
01:32PM 8.9373 -68.5270 144° Southeast  Level Estimated
01:33PM 8.8348 -68.4528 144° Southeast  Level Estimated
01:34PM 8.7323 -68.3786 144° Southeast  Level Estimated
01:35PM 8.6297 -68.3045 144° Southeast  Level Estimated
01:36PM 8.5272 -68.2304 144° Southeast  Level Estimated
01:37PM 8.4246 -68.1564 144° Southeast  Level Estimated
01:38PM 8.3220 -68.0824 144° Southeast  Level Estimated
01:39PM 8.2194 -68.0084 144° Southeast  Level Estimated
01:40PM 8.1168 -67.9345 145° Southeast  Level Estimated
01:41PM 8.0142 -67.8606 145° Southeast  Level Estimated
01:42PM 7.9116 -67.7868 145° Southeast  Level Estimated
01:43PM 7.8089 -67.7130 145° Southeast  Level Estimated
01:44PM 7.7063 -67.6392 145° Southeast  Level Estimated
01:45PM 7.6036 -67.5654 145° Southeast  Level Estimated
01:46PM 7.5009 -67.4917 145° Southeast  Level Estimated
01:47PM 7.3982 -67.4181 145° Southeast  Level Estimated
01:48PM 7.2955 -67.3444 145° Southeast  Level Estimated
01:49PM 7.1927 -67.2708 145° Southeast  Level Estimated
01:50PM 7.0900 -67.1973 145° Southeast  Level Estimated
01:51PM 6.9873 -67.1237 145° Southeast  Level Estimated
01:52PM 6.8845 -67.0502 145° Southeast  Level Estimated
01:53PM 6.7817 -66.9768 145° Southeast  Level Estimated
01:54PM 6.6789 -66.9033 145° Southeast  Level Estimated
01:55PM 6.5762 -66.8299 145° Southeast  Level Estimated
01:56PM 6.4734 -66.7565 145° Southeast  Level Estimated
01:57PM 6.3706 -66.6832 145° Southeast  Level Estimated
01:58PM 6.2677 -66.6099 145° Southeast  Level Estimated
01:59PM 6.1649 -66.5366 145° Southeast  Level Estimated
02:00PM 6.0621 -66.4633 145° Southeast  Level Estimated
02:01PM 5.9592 -66.3901 145° Southeast  Level Estimated
02:02PM 5.8563 -66.3169 145° Southeast  Level Estimated
02:03PM 5.7535 -66.2437 145° Southeast  Level Estimated
02:04PM 5.6506 -66.1705 145° Southeast  Level Estimated
02:05PM 5.5477 -66.0974 145° Southeast  Level Estimated
02:06PM 5.4448 -66.0243 145° Southeast  Level Estimated
02:07PM 5.3419 -65.9512 145° Southeast  Level Estimated
02:08PM 5.2390 -65.8782 145° Southeast  Level Estimated
02:09PM 5.1361 -65.8052 145° Southeast  Level Estimated
02:10PM 5.0331 -65.7322 145° Southeast  Level Estimated
02:11PM 4.9302 -65.6592 145° Southeast  Level Estimated
02:12PM 4.8272 -65.5862 145° Southeast  Level Estimated
02:13PM 4.7243 -65.5133 145° Southeast  Level Estimated
02:14PM 4.6213 -65.4404 145° Southeast  Level Estimated
02:15PM 4.5183 -65.3675 145° Southeast  Level Estimated
02:16PM 4.4153 -65.2946 145° Southeast  Level Estimated
02:17PM 4.3124 -65.2218 145° Southeast  Level Estimated
02:18PM 4.2094 -65.1489 145° Southeast  Level Estimated
02:19PM 4.1064 -65.0761 145° Southeast  Level Estimated
02:20PM 4.0034 -65.0033 145° Southeast  Level Estimated
02:21PM 3.9004 -64.9305 145° Southeast  Level Estimated
02:22PM 3.7973 -64.8578 145° Southeast  Level Estimated
02:23PM 3.6943 -64.7850 145° Southeast  Level Estimated
02:24PM 3.5913 -64.7123 145° Southeast  Level Estimated
02:25PM 3.4882 -64.6396 145° Southeast  Level Estimated
02:26PM 3.3852 -64.5669 145° Southeast  Level Estimated
02:27PM 3.2821 -64.4942 145° Southeast  Level Estimated
02:28PM 3.1791 -64.4216 145° Southeast  Level Estimated
02:29PM 3.0760 -64.3489 145° Southeast  Level Estimated
02:30PM 2.9730 -64.2763 145° Southeast  Level Estimated
02:31PM 2.8699 -64.2037 145° Southeast  Level Estimated
02:32PM 2.7668 -64.1311 145° Southeast  Level Estimated
02:33PM 2.6637 -64.0585 145° Southeast  Level Estimated
02:34PM 2.5607 -63.9859 145° Southeast  Level Estimated
02:35PM 2.4576 -63.9133 145° Southeast  Level Estimated
02:36PM 2.3545 -63.8408 145° Southeast  Level Estimated
02:37PM 2.2514 -63.7682 145° Southeast  Level Estimated
02:38PM 2.1483 -63.6957 145° Southeast  Level Estimated
02:39PM 2.0452 -63.6232 145° Southeast  Level Estimated
02:40PM 1.9421 -63.5507 145° Southeast  Level Estimated
02:41PM 1.8390 -63.4781 145° Southeast  Level Estimated
02:42PM 1.7359 -63.4056 145° Southeast  Level Estimated
02:43PM 1.6328 -63.3331 145° Southeast  Level Estimated
02:44PM 1.5296 -63.2607 145° Southeast  Level Estimated
02:45PM 1.4265 -63.1882 145° Southeast  Level Estimated
02:46PM 1.3234 -63.1157 145° Southeast  Level Estimated
02:47PM 1.2203 -63.0433 145° Southeast  Level Estimated
02:48PM 1.1171 -62.9708 145° Southeast  Level Estimated
02:49PM 1.0140 -62.8983 145° Southeast  Level Estimated
02:50PM 0.9109 -62.8259 145° Southeast  Level Estimated
02:51PM 0.8078 -62.7534 145° Southeast  Level Estimated
02:52PM 0.7046 -62.6810 145° Southeast  Level Estimated
02:53PM 0.6015 -62.6086 145° Southeast  Level Estimated
02:54PM 0.4984 -62.5361 145° Southeast  Level Estimated
02:55PM 0.3952 -62.4637 145° Southeast  Level Estimated
02:56PM 0.2921 -62.3913 145° Southeast  Level Estimated
02:57PM 0.1890 -62.3188 145° Southeast  Level Estimated
02:58PM 0.0858 -62.2464 145° Southeast  Level Estimated
02:59PM -0.0173 -62.1740 145° Southeast  Level Estimated
03:00PM -0.1205 -62.1016 145° Southeast  Level Estimated
03:01PM -0.2236 -62.0291 145° Southeast  Level Estimated
03:02PM -0.3267 -61.9567 145° Southeast  Level Estimated
03:03PM -0.4299 -61.8843 145° Southeast  Level Estimated
03:04PM -0.5330 -61.8118 145° Southeast  Level Estimated
03:05PM -0.6361 -61.7394 145° Southeast  Level Estimated
03:06PM -0.7393 -61.6670 145° Southeast  Level Estimated
03:07PM -0.8424 -61.5945 145° Southeast  Level Estimated
03:08PM -0.9455 -61.5221 145° Southeast  Level Estimated
03:09PM -1.0487 -61.4496 145° Southeast  Level Estimated
03:10PM -1.1518 -61.3772 145° Southeast  Level Estimated
03:11PM -1.2549 -61.3047 145° Southeast  Level Estimated
03:12PM -1.3580 -61.2322 145° Southeast  Level Estimated
03:13PM -1.4611 -61.1598 145° Southeast  Level Estimated
03:14PM -1.5643 -61.0873 145° Southeast  Level Estimated
03:15PM -1.6674 -61.0148 145° Southeast  Level Estimated
03:16PM -1.7705 -60.9423 145° Southeast  Level Estimated
03:17PM -1.8736 -60.8698 145° Southeast  Level Estimated
03:18PM -1.9767 -60.7973 145° Southeast  Level Estimated
03:19PM -2.0798 -60.7248 145° Southeast  Level Estimated
03:20PM -2.1829 -60.6522 145° Southeast  Level Estimated
03:21PM -2.2860 -60.5797 145° Southeast  Level Estimated
03:22PM -2.3891 -60.5071 145° Southeast  Level Estimated
03:23PM -2.4922 -60.4346 145° Southeast  Level Estimated
03:24PM -2.5953 -60.3620 145° Southeast  Level Estimated
03:25PM -2.6984 -60.2894 145° Southeast  Level Estimated
03:26PM -2.8014 -60.2168 145° Southeast  Level Estimated
03:26PM -3.0090 -60.2390 145° Southeast 239 275 2,200  Level FlightAware
03:27PM -2.9045 -60.1442 145° Southeast  Level Estimated
03:27PM -3.0200 -60.2210 121° Southeast 228 262 2,200  Level FlightAware
03:27PM -3.0280 -60.2040 115° Southeast 217 250 2,100  Descending FlightAware
03:27PM -3.0350 -60.1880 114° Southeast 199 229 2,200 120 Climbing FlightAware
03:28PM -3.0380 -60.1740 102° East 183 211 2,200 -180 Level FlightAware
03:28PM -3.0380 -60.1540 90° East 175 201 2,100 -600 Descending FlightAware
03:28PM -3.0380 -60.1390 90° East 170 196 1,800 -840 Descending FlightAware
03:29PM -3.0380 -60.1200 90° East 161 185 1,500 -840 Descending FlightAware
03:29PM -3.0380 -60.1100 90° East 156 180 1,300 -900 Descending FlightAware
03:29PM -3.0390 -60.0990 95° East 152 175 1,100 -840 Descending FlightAware
03:30PM -3.0390 -60.0850 90° East 153 176 800 -420 Descending FlightAware
03:30PM -3.0390 -60.0700 90° East 153 176 800  Level FlightAware
03:33PM -3.0386 -60.0497 153° Southeast  Level Estimated
03:34PM -3.0386 -60.0497 153° Southeast  Level Estimated
03:35PM -3.0386 -60.0497 153° Southeast  Level Estimated
03:36PM -3.0386 -60.0497 153° Southeast  Level Estimated
03:37PM -3.0386 -60.0497 153° Southeast  Level Estimated
03:38PM -3.0386 -60.0497 153° Southeast  Level Estimated
03:39PM -3.0386 -60.0497 153° Southeast  Level Estimated
03:40PM -3.0386 -60.0497 153° Southeast  Level Estimated
03:41PM -3.0386 -60.0497 153° Southeast  Level Estimated
03:42PM -3.0386 -60.0497 153° Southeast  Level Estimated
03:43PM -3.0386 -60.0497 153° Southeast  Level Estimated
03:44PM -3.0386 -60.0497 153° Southeast  Level Estimated
03:45PM -3.0386 -60.0497 153° Southeast  Level Estimated
03:46PM -3.0386 -60.0497 153° Southeast  Level Estimated
03:47PM -3.0386 -60.0497 153° Southeast  Level Estimated
03:48PM -3.0386 -60.0497 153° Southeast  Level Estimated